Time;durP1;ratioP1;P1;durP2;ratioP2;P2;SDS_P1;SDS_P2;PMS_P1;PMS_P2;Temp;Humidity;BMP_temperature;BMP_pressure;BME280_temperature;BME280_humidity;BME280_pressure;Samples;Min_cycle;Max_cycle;Signal;HPM_P1;HPM_P2
2021/10/26 00:00:07;;;;;;;12.13;5.47;;;;;;;-141.50;100.00;63355.56;4927970;29;20047;-82
2021/10/26 00:02:35;;;;;;;14.55;5.57;;;;;;;-141.50;100.00;63355.56;4927035;29;20050;-82
2021/10/26 00:05:04;;;;;;;8.48;4.72;;;;;;;-141.50;100.00;63355.56;4942037;29;20051;-83
2021/10/26 00:07:31;;;;;;;10.20;5.40;;;;;;;-141.50;100.00;63355.56;4943691;29;20078;-82
2021/10/26 00:09:57;;;;;;;12.30;5.43;;;;;;;-141.50;100.00;63355.56;4927399;29;20084;-84
2021/10/26 00:12:33;;;;;;;12.48;5.40;;;;;;;-141.50;100.00;63355.56;4940097;29;20114;-82
2021/10/26 00:15:02;;;;;;;11.50;5.97;;;;;;;-141.50;100.00;63355.56;4942134;29;20035;-82
2021/10/26 00:17:29;;;;;;;12.55;6.18;;;;;;;-141.50;100.00;63355.56;4927665;28;20419;-82
2021/10/26 00:19:55;;;;;;;12.18;5.95;;;;;;;-141.50;100.00;63355.56;4960378;28;20061;-83
2021/10/26 00:22:22;;;;;;;11.13;5.45;;;;;;;-141.50;100.00;63355.56;4944746;28;20058;-83
2021/10/26 00:24:48;;;;;;;11.55;4.80;;;;;;;-141.50;100.00;63355.56;4945562;28;20053;-82
2021/10/26 00:27:15;;;;;;;11.38;5.07;;;;;;;-141.50;100.00;63355.56;4960879;28;20038;-82
2021/10/26 00:29:42;;;;;;;10.57;5.68;;;;;;;-141.50;100.00;63355.56;4961507;28;20047;-83
2021/10/26 00:32:08;;;;;;;9.27;4.72;;;;;;;-141.50;100.00;63355.56;4944600;28;20479;-81
2021/10/26 00:34:35;;;;;;;14.07;5.72;;;;;;;-141.50;100.00;63355.56;4944378;28;20047;-83
2021/10/26 00:37:02;;;;;;;12.00;5.43;;;;;;;-141.50;100.00;63355.56;4943979;28;20507;-82
2021/10/26 00:39:29;;;;;;;10.30;5.22;;;;;;;-141.50;100.00;63355.56;4977948;28;20047;-83
2021/10/26 00:41:57;;;;;;;9.85;5.65;;;;;;;-141.50;100.00;63355.56;4960949;28;20043;-83
2021/10/26 00:44:28;;;;;;;12.88;5.32;;;;;;;-141.50;100.00;63355.56;4976517;28;20113;-81
2021/10/26 00:46:55;;;;;;;9.95;4.90;;;;;;;-141.50;100.00;63355.56;4960253;28;20054;-82
2021/10/26 00:49:22;;;;;;;9.75;4.90;;;;;;;-141.50;100.00;63355.56;4944594;28;20046;-82
2021/10/26 00:51:51;;;;;;;11.05;5.00;;;;;;;-141.50;100.00;63355.56;4944300;28;20049;-83
2021/10/26 00:54:18;;;;;;;8.25;4.60;;;;;;;-141.50;100.00;63355.56;4960132;28;20066;-83
2021/10/26 00:56:46;;;;;;;9.25;4.57;;;;;;;-141.50;100.00;63355.56;4960318;28;20046;-83
2021/10/26 00:59:13;;;;;;;9.95;4.45;;;;;;;-141.50;100.00;63355.56;4945151;28;20121;-83
2021/10/26 01:01:40;;;;;;;9.35;4.68;;;;;;;-141.50;100.00;63355.56;4944920;28;20567;-84
2021/10/26 01:04:07;;;;;;;8.88;4.40;;;;;;;-141.50;100.00;63355.56;4942908;28;20047;-85
2021/10/26 01:06:35;;;;;;;9.98;4.65;;;;;;;-141.50;100.00;63355.56;4977520;28;20039;-84
2021/10/26 01:09:05;;;;;;;8.98;4.50;;;;;;;-141.50;100.00;63355.56;4944020;28;20479;-85
2021/10/26 01:11:36;;;;;;;10.95;4.22;;;;;;;-141.50;100.00;63355.56;4961289;28;20043;-83
2021/10/26 01:14:04;;;;;;;7.88;4.30;;;;;;;-141.50;100.00;63355.56;4947006;28;20050;-84
2021/10/26 01:16:31;;;;;;;8.82;3.75;;;;;;;-141.50;100.00;63355.56;4954449;28;20046;-86
2021/10/26 01:18:57;;;;;;;8.00;3.60;;;;;;;-141.50;100.00;63355.56;4980456;28;20039;-85
2021/10/26 01:21:24;;;;;;;10.00;3.90;;;;;;;-141.50;100.00;63355.56;4976440;28;20042;-82
2021/10/26 01:23:51;;;;;;;8.57;3.55;;;;;;;-141.50;100.00;63355.56;4978431;28;20054;-83
2021/10/26 01:26:18;;;;;;;9.82;3.97;;;;;;;-141.50;100.00;63355.56;4943874;28;20042;-83
2021/10/26 01:28:44;;;;;;;7.50;4.25;;;;;;;-141.50;100.00;63355.56;4960297;28;20050;-82
2021/10/26 01:31:12;;;;;;;8.95;3.97;;;;;;;-141.50;100.00;63355.56;4964434;28;20042;-85
2021/10/26 01:33:39;;;;;;;8.90;3.83;;;;;;;-141.50;100.00;63355.56;4941963;28;20133;-83
2021/10/26 01:36:06;;;;;;;7.13;3.75;;;;;;;-141.50;100.00;63355.56;4945082;28;20546;-83
2021/10/26 01:38:33;;;;;;;6.93;3.70;;;;;;;-141.50;100.00;63355.56;4945360;28;20055;-82
2021/10/26 01:41:00;;;;;;;7.65;3.90;;;;;;;-141.50;100.00;63355.56;4945916;28;20101;-83
2021/10/26 01:43:29;;;;;;;11.00;4.80;;;;;;;-141.50;100.00;63355.56;4944477;28;20050;-84
2021/10/26 01:45:58;;;;;;;9.18;4.47;;;;;;;-141.50;100.00;63355.56;4946245;28;20085;-84
2021/10/26 01:48:27;;;;;;;9.20;4.22;;;;;;;-141.50;100.00;63355.56;4944335;28;20137;-82
2021/10/26 01:50:57;;;;;;;8.73;3.97;;;;;;;-141.50;100.00;63355.56;4961969;28;20054;-82
2021/10/26 01:53:26;;;;;;;7.80;3.83;;;;;;;-141.50;100.00;63355.56;4960086;28;20050;-84
2021/10/26 01:55:53;;;;;;;7.25;4.18;;;;;;;-141.50;100.00;63355.56;4957511;28;20045;-83
2021/10/26 01:58:20;;;;;;;8.02;4.65;;;;;;;-141.50;100.00;63355.56;4977015;28;20030;-83
2021/10/26 02:00:47;;;;;;;8.68;4.22;;;;;;;-141.50;100.00;63355.56;4946203;28;20043;-81
2021/10/26 02:03:13;;;;;;;9.48;4.40;;;;;;;-141.50;100.00;63355.56;4944502;28;20043;-83
2021/10/26 02:05:40;;;;;;;7.38;3.97;;;;;;;-141.50;100.00;63355.56;4962171;28;20050;-84
2021/10/26 02:08:07;;;;;;;9.30;4.53;;;;;;;-141.50;100.00;63355.56;4946722;28;20043;-82
2021/10/26 02:10:36;;;;;;;9.10;4.47;;;;;;;-141.50;100.00;63355.56;4980516;28;20035;-83
2021/10/26 02:13:06;;;;;;;8.80;5.10;;;;;;;-141.50;100.00;63355.56;4953212;28;20088;-84
2021/10/26 02:15:39;;;;;;;7.28;4.22;;;;;;;-141.50;100.00;63355.56;4952903;28;20062;-82
2021/10/26 02:18:24;;;;;;;11.77;5.32;;;;;;;-141.50;100.00;63355.56;4962740;28;20050;-82
2021/10/26 02:20:52;;;;;;;9.27;4.78;;;;;;;-141.50;100.00;63355.56;4930661;28;20380;-82
2021/10/26 02:23:21;;;;;;;9.38;4.70;;;;;;;-141.50;100.00;63355.56;4967167;28;20069;-83
2021/10/26 02:25:48;;;;;;;10.02;4.57;;;;;;;-141.50;100.00;63355.56;4945260;28;20051;-84
2021/10/26 02:28:15;;;;;;;10.23;4.70;;;;;;;-141.50;100.00;63355.56;4945482;28;20109;-83
2021/10/26 02:30:46;;;;;;;13.80;4.85;;;;;;;-141.50;100.00;63355.56;4962006;28;20618;-82
2021/10/26 02:33:14;;;;;;;12.02;5.00;;;;;;;-141.50;100.00;63355.56;4946564;28;20045;-84
2021/10/26 02:35:41;;;;;;;13.45;4.53;;;;;;;-141.50;100.00;63355.56;4964309;28;20097;-86
2021/10/26 02:38:08;;;;;;;8.30;4.25;;;;;;;-141.50;100.00;63355.56;4946382;28;20042;-82
2021/10/26 02:40:35;;;;;;;8.90;4.22;;;;;;;-141.50;100.00;63355.56;4947176;28;20046;-83
2021/10/26 02:43:01;;;;;;;10.80;3.90;;;;;;;-141.50;100.00;63355.56;4943964;28;20114;-86
2021/10/26 02:45:29;;;;;;;9.50;3.88;;;;;;;-141.50;100.00;63355.56;4946744;28;20047;-83
2021/10/26 02:47:57;;;;;;;9.82;3.50;;;;;;;-141.50;100.00;63355.56;4945288;28;20157;-85
2021/10/26 02:50:27;;;;;;;9.02;3.88;;;;;;;-141.50;100.00;63355.56;4962549;28;20046;-83
2021/10/26 02:52:53;;;;;;;7.95;3.60;;;;;;;-141.50;100.00;63355.56;4945938;28;20039;-83
2021/10/26 02:55:20;;;;;;;9.30;3.35;;;;;;;-141.50;100.00;63355.56;4962696;28;20049;-83
2021/10/26 02:57:48;;;;;;;8.98;3.70;;;;;;;-141.50;100.00;63355.56;4947755;28;20561;-83
2021/10/26 03:00:15;;;;;;;7.90;3.72;;;;;;;-141.50;100.00;63355.56;4947989;28;20046;-84
2021/10/26 03:02:42;;;;;;;8.45;3.95;;;;;;;-141.50;100.00;63355.56;4950882;28;20050;-82
2021/10/26 03:05:09;;;;;;;9.95;3.75;;;;;;;-141.50;100.00;63355.56;4962615;28;20058;-83
2021/10/26 03:07:39;;;;;;;9.00;3.90;;;;;;;-141.50;100.00;63355.56;4946539;28;20547;-84
2021/10/26 03:10:06;;;;;;;8.80;3.65;;;;;;;-141.50;100.00;63355.56;4979883;28;20039;-84
2021/10/26 03:12:33;;;;;;;9.27;3.35;;;;;;;-141.50;100.00;63355.56;4961860;28;20047;-83
2021/10/26 03:15:00;;;;;;;9.27;3.40;;;;;;;-141.50;100.00;63355.56;4961791;28;20043;-84
2021/10/26 03:17:29;;;;;;;10.55;3.70;;;;;;;-141.50;100.00;63355.56;4945636;28;20093;-83
2021/10/26 03:19:56;;;;;;;6.55;3.35;;;;;;;-141.50;100.00;63355.56;4962134;28;20050;-82
2021/10/26 03:22:22;;;;;;;9.68;3.63;;;;;;;-141.50;100.00;63355.56;4961415;28;20109;-82
2021/10/26 03:24:50;;;;;;;8.50;3.17;;;;;;;-141.50;100.00;63355.56;4945531;28;20046;-84
2021/10/26 03:27:20;;;;;;;5.80;3.13;;;;;;;-141.50;100.00;63355.56;4945262;28;20141;-85
2021/10/26 03:29:47;;;;;;;9.07;3.15;;;;;;;-141.50;100.00;63355.56;4946589;28;20042;-84
2021/10/26 03:32:14;;;;;;;8.77;3.03;;;;;;;-141.50;100.00;63355.56;4945292;28;20047;-84
2021/10/26 03:34:41;;;;;;;6.13;2.92;;;;;;;-141.50;100.00;63355.56;4978956;28;20119;-84
2021/10/26 03:37:08;;;;;;;6.78;3.60;;;;;;;-141.50;100.00;63355.56;4961215;28;20053;-81
2021/10/26 03:39:34;;;;;;;7.25;3.13;;;;;;;-141.50;100.00;63355.56;4945398;28;20101;-83
2021/10/26 03:42:01;;;;;;;10.60;3.05;;;;;;;-141.50;100.00;63355.56;4959913;28;20073;-83
2021/10/26 03:44:28;;;;;;;6.03;2.70;;;;;;;-141.50;100.00;63355.56;4941993;28;20072;-84
2021/10/26 03:46:55;;;;;;;5.55;2.75;;;;;;;-141.50;100.00;63355.56;4945506;28;20043;-84
2021/10/26 03:49:22;;;;;;;6.13;2.80;;;;;;;-141.50;100.00;63355.56;4950323;28;20082;-82
2021/10/26 03:51:49;;;;;;;7.30;3.20;;;;;;;-141.50;100.00;63355.56;4944713;28;20412;-82
2021/10/26 03:54:16;;;;;;;4.95;2.38;;;;;;;-141.50;100.00;63355.56;4958200;28;20062;-82
2021/10/26 03:56:43;;;;;;;6.20;2.88;;;;;;;-141.50;100.00;63355.56;4942375;28;20050;-82
2021/10/26 03:59:10;;;;;;;6.72;2.70;;;;;;;-141.50;100.00;63355.56;4982472;28;20046;-83
2021/10/26 04:01:41;;;;;;;4.97;2.33;;;;;;;-141.50;100.00;63355.56;4949570;28;20041;-83
2021/10/26 04:04:36;;;;;;;6.70;2.30;;;;;;;-141.50;100.00;63355.56;4963125;28;20412;-84
2021/10/26 04:07:05;;;;;;;6.78;2.63;;;;;;;-141.50;100.00;63355.56;4942145;28;20464;-84
2021/10/26 04:12:24;;;;;;;3.80;2.42;;;;;;;-141.50;100.00;63355.56;4964067;28;20066;-84
2021/10/26 04:14:54;;;;;;;4.70;2.70;;;;;;;-141.50;100.00;63355.56;4965603;28;20042;-84
2021/10/26 04:17:22;;;;;;;6.70;2.78;;;;;;;-141.50;100.00;63355.56;4965207;28;20055;-84
2021/10/26 04:19:54;;;;;;;5.05;2.75;;;;;;;-141.50;100.00;63355.56;4949410;28;20043;-84
2021/10/26 04:22:21;;;;;;;6.80;2.60;;;;;;;-141.50;100.00;63355.56;4964223;28;20070;-84
2021/10/26 04:24:50;;;;;;;4.85;2.80;;;;;;;-141.50;100.00;63355.56;4948845;28;20071;-80
2021/10/26 04:27:18;;;;;;;7.68;2.80;;;;;;;-141.50;100.00;63355.56;4960879;28;20047;-82
2021/10/26 04:29:45;;;;;;;5.88;2.75;;;;;;;-141.50;100.00;63355.56;4961784;28;20089;-80
2021/10/26 04:32:13;;;;;;;6.43;3.33;;;;;;;-141.50;100.00;63355.56;4977099;28;20038;-80
2021/10/26 04:34:40;;;;;;;6.95;3.17;;;;;;;-141.50;100.00;63355.56;4967581;28;20271;-82
2021/10/26 04:37:12;;;;;;;7.47;3.00;;;;;;;-141.50;100.00;63355.56;4950928;28;20162;-84
2021/10/26 04:42:22;;;;;;;10.05;3.53;;;;;;;-141.50;100.00;63355.56;4980253;28;20503;-83
2021/10/26 04:44:59;;;;;;;9.23;3.45;;;;;;;-141.50;100.00;63355.56;4948630;28;20047;-83
2021/10/26 04:47:27;;;;;;;11.13;3.50;;;;;;;-141.50;100.00;63355.56;4971353;28;20038;-80
2021/10/26 04:49:54;;;;;;;6.35;3.55;;;;;;;-141.50;100.00;63355.56;4949257;28;20047;-83
2021/10/26 04:52:22;;;;;;;9.88;3.75;;;;;;;-141.50;100.00;63355.56;4949119;28;20503;-84
2021/10/26 04:55:17;;;;;;;10.70;4.28;;;;;;;-141.50;100.00;63355.56;4964088;28;20065;-86
2021/10/26 05:01:27;;;;;;;10.57;4.50;;;;;;;-141.50;100.00;63355.56;4968176;28;20041;-82
2021/10/26 05:03:54;;;;;;;9.30;4.97;;;;;;;-141.50;100.00;63355.56;4981108;28;20049;-82
2021/10/26 05:06:22;;;;;;;11.20;4.85;;;;;;;-141.50;100.00;63355.56;4963462;28;20059;-83
2021/10/26 05:08:52;;;;;;;9.32;4.80;;;;;;;-141.50;100.00;63355.56;4964148;28;20408;-83
2021/10/26 05:11:28;;;;;;;9.55;5.20;;;;;;;-141.50;100.00;63355.56;4985596;28;20521;-86
2021/10/26 05:14:25;;;;;;;8.73;4.80;;;;;;;-141.50;100.00;63355.56;5008020;23;20484;-86
2021/10/26 05:33:36;;;;;;;10.38;6.65;;;;;;;-141.50;100.00;63355.56;4879896;29;20080;-85
2021/10/26 05:36:48;;;;;;;14.27;7.15;;;;;;;-141.50;100.00;63355.56;4830165;29;20216;-85
2021/10/26 05:42:52;;;;;;;14.68;7.45;;;;;;;-141.50;100.00;63355.56;4838377;29;20068;-87
2021/10/26 05:46:59;;;;;;;14.38;7.68;;;;;;;-141.50;100.00;63355.56;4833232;29;20469;-86
2021/10/26 05:50:17;;;;;;;13.68;6.63;;;;;;;-141.50;100.00;63355.56;4781932;29;20051;-85
2021/10/26 05:53:51;;;;;;;12.65;6.93;;;;;;;-141.50;100.00;63355.56;4799785;29;20114;-85
2021/10/26 06:03:57;;;;;;;17.23;7.25;;;;;;;-141.50;100.00;63355.56;5379960;23;20510;-86
2021/10/26 06:07:03;;;;;;;16.58;7.10;;;;;;;-141.50;100.00;63355.56;4984043;28;20104;-89
2021/10/26 06:09:35;;;;;;;15.90;7.60;;;;;;;-141.50;100.00;63355.56;4965995;28;20577;-88
2021/10/26 06:13:11;;;;;;;15.98;7.05;;;;;;;-141.50;100.00;63355.56;4969249;28;20066;-89
2021/10/26 06:20:25;;;;;;;11.68;7.28;;;;;;;-141.50;100.00;63355.56;4890333;29;20107;-87
2021/10/26 06:23:50;;;;;;;15.02;8.27;;;;;;;-141.50;100.00;63355.56;4880377;29;20060;-91
2021/10/26 06:27:10;;;;;;;;;;;;;;;;;;;;;
2021/10/26 06:29:38;;;;;;;11.80;6.80;;;;;;;-141.50;100.00;63355.56;4981251;28;20137;-88
2021/10/26 06:40:29;;;;;;;16.58;7.90;;;;;;;-141.50;100.00;63355.56;5483515;23;20059;-86
2021/10/26 06:47:48;;;;;;;19.60;7.97;;;;;;;-141.50;100.00;63355.56;4855711;29;20041;-88
2021/10/26 06:51:08;;;;;;;18.05;8.07;;;;;;;-141.50;100.00;63355.56;4829942;29;20050;-88
2021/10/26 06:54:14;;;;;;;15.27;8.45;;;;;;;-141.50;100.00;63355.56;4774174;30;20055;-87
2021/10/26 06:57:52;;;;;;;25.48;9.23;;;;;;;-141.50;100.00;63355.56;4762657;29;20571;-86
2021/10/26 07:00:46;;;;;;;20.27;9.55;;;;;;;-141.50;100.00;63355.56;4892493;29;20055;-88
2021/10/26 07:04:01;;;;;;;19.63;9.48;;;;;;;-141.50;100.00;63355.56;4831677;29;20057;-87
2021/10/26 07:06:47;;;;;;;22.88;11.00;;;;;;;-141.50;100.00;63355.56;4818527;29;20657;-88
2021/10/26 07:09:46;;;;;;;20.63;9.95;;;;;;;-141.50;100.00;63355.56;4763595;29;20112;-85
2021/10/26 07:12:45;;;;;;;17.88;10.57;;;;;;;-141.50;100.00;63355.56;4791660;29;20548;-89
2021/10/26 07:16:15;;;;;;;18.42;9.93;;;;;;;-141.50;100.00;63355.56;4773992;29;20058;-85
2021/10/26 07:30:35;;;;;;;17.15;10.32;;;;;;;-141.50;100.00;63355.56;4946334;29;20055;-88
2021/10/26 07:33:24;;;;;;;19.00;10.23;;;;;;;-141.50;100.00;63355.56;4938374;29;20055;-84
2021/10/26 07:37:01;;;;;;;18.45;10.45;;;;;;;-141.50;100.00;63355.56;4940303;29;20519;-87
2021/10/26 07:40:01;;;;;;;21.75;11.10;;;;;;;-141.50;100.00;63355.56;4957155;29;20047;-87
2021/10/26 07:42:42;;;;;;;17.23;10.55;;;;;;;-141.50;100.00;63355.56;4955685;29;20051;-87
2021/10/26 07:45:24;;;;;;;;;;;;;;;;;;;;;
2021/10/26 07:48:55;;;;;;;20.90;11.10;;;;;;;-141.50;100.00;63355.56;4955018;29;20115;-89
2021/10/26 07:51:36;;;;;;;19.58;11.80;;;;;;;-141.50;100.00;63355.56;4928927;29;20079;-87
2021/10/26 07:54:20;;;;;;;18.45;10.73;;;;;;;-141.50;100.00;63355.56;4938452;29;20043;-88
2021/10/26 07:57:39;;;;;;;21.40;11.48;;;;;;;-141.50;100.00;63355.56;4969480;29;20053;-84
2021/10/26 08:00:41;;;;;;;20.73;11.25;;;;;;;-141.50;100.00;63355.56;4937456;29;20047;-86
2021/10/26 08:06:48;;;;;;;20.75;11.68;;;;;;;-141.50;100.00;63355.56;4870431;29;20041;-85
2021/10/26 08:27:40;;;;;;;22.27;12.98;;;;;;;-141.50;100.00;63355.56;4939530;29;20047;-89
2021/10/26 08:33:35;;;;;;;25.52;11.85;;;;;;;-141.50;100.00;63355.56;4941697;29;20061;-85
2021/10/26 08:36:57;;;;;;;22.38;12.35;;;;;;;-141.50;100.00;63355.56;4922577;29;20674;-87
2021/10/26 08:39:30;;;;;;;19.98;11.82;;;;;;;-141.50;100.00;63355.56;4904177;29;20044;-87
2021/10/26 08:42:41;;;;;;;21.40;12.02;;;;;;;-141.50;100.00;63355.56;4903950;29;20500;-88
2021/10/26 08:45:08;;;;;;;;;;;;;;;-141.50;100.00;63355.56;4904051;29;20184;-85
2021/10/26 08:48:10;;;;;;;21.33;11.82;;;;;;;-141.50;100.00;63355.56;4919213;29;19966;-88
2021/10/26 08:51:16;;;;;;;20.65;10.55;;;;;;;-141.50;100.00;63355.56;4892133;29;20064;-87
2021/10/26 09:09:47;;;;;;;21.27;10.63;;;;;;;-141.50;100.00;63355.56;4833284;29;20117;-88
2021/10/26 09:22:21;;;;;;;19.92;10.40;;;;;;;-141.50;100.00;63355.56;4757064;30;20159;-86
2021/10/26 09:25:12;;;;;;;26.17;11.05;;;;;;;-141.50;100.00;63355.56;4834691;29;20141;-87
2021/10/26 09:31:38;;;;;;;19.40;10.02;;;;;;;-141.50;100.00;63355.56;4931298;23;20049;-87
2021/10/26 09:38:57;;;;;;;21.88;10.93;;;;;;;-141.50;100.00;63355.56;4774454;30;20051;-88
2021/10/26 09:41:24;;;;;;;23.35;10.50;;;;;;;-141.50;100.00;63355.56;4795635;29;20082;-87
2021/10/26 09:44:11;;;;;;;20.92;10.38;;;;;;;-141.50;100.00;63355.56;4848186;29;20124;-89
2021/10/26 09:47:10;;;;;;;26.90;10.77;;;;;;;-141.50;100.00;63355.56;4881674;29;20049;-87
2021/10/26 09:50:27;;;;;;;19.63;10.15;;;;;;;-141.50;100.00;63355.56;4881744;29;20080;-88
2021/10/26 09:53:07;;;;;;;20.13;11.45;;;;;;;-141.50;100.00;63355.56;4826996;29;20510;-88
2021/10/26 09:55:57;;;;;;;;;;;;;;;;;;;;;
2021/10/26 09:58:48;;;;;;;20.92;11.43;;;;;;;-141.50;100.00;63355.56;4859131;29;20428;-87
2021/10/26 10:02:43;;;;;;;23.95;10.75;;;;;;;-141.50;100.00;63355.56;4850682;29;20052;-87
2021/10/26 10:05:30;;;;;;;25.42;12.52;;;;;;;-141.50;100.00;63355.56;4888369;29;21425;-83
2021/10/26 10:08:18;;;;;;;21.52;11.48;;;;;;;-141.50;100.00;63355.56;4852659;29;20093;-88
2021/10/26 10:11:22;;;;;;;23.10;11.32;;;;;;;-141.50;100.00;63355.56;4840410;29;20057;-88
2021/10/26 10:18:03;;;;;;;18.42;9.10;;;;;;;-141.50;100.00;63355.56;4889724;29;20142;-87
2021/10/26 10:24:07;;;;;;;16.50;8.93;;;;;;;-141.50;100.00;63355.56;4849735;29;20049;-85
2021/10/26 10:27:03;;;;;;;17.52;8.95;;;;;;;-141.50;100.00;63355.56;4876616;29;20065;-85
2021/10/26 10:29:30;;;;;;;17.13;8.90;;;;;;;-141.50;100.00;63355.56;4890761;29;20056;-85
2021/10/26 10:32:28;;;;;;;14.73;8.75;;;;;;;-141.50;100.00;63355.56;4874763;29;20061;-89
2021/10/26 10:35:32;;;;;;;17.02;9.30;;;;;;;-141.50;100.00;63355.56;4844543;29;20079;-84
2021/10/26 10:38:59;;;;;;;17.27;9.10;;;;;;;-141.50;100.00;63355.56;4841674;29;20292;-88
2021/10/26 10:42:29;;;;;;;18.42;9.27;;;;;;;-141.50;100.00;63355.56;4815151;29;20056;-86
2021/10/26 10:45:39;;;;;;;17.73;8.77;;;;;;;-141.50;100.00;63355.56;4773121;30;20166;-85
2021/10/26 10:48:54;;;;;;;16.80;9.32;;;;;;;-141.50;100.00;63355.56;4743192;30;20572;-87
2021/10/26 10:54:37;;;;;;;18.58;10.20;;;;;;;-141.50;100.00;63355.56;4938497;23;20219;-85
2021/10/26 10:57:17;;;;;;;18.45;10.43;;;;;;;-141.50;100.00;63355.56;4899063;29;20051;-83
2021/10/26 10:59:48;;;;;;;19.50;11.90;;;;;;;-141.50;100.00;63355.56;4898434;29;20060;-82
2021/10/26 11:02:24;;;;;;;17.65;10.80;;;;;;;-141.50;100.00;63355.56;4883678;29;20052;-81
2021/10/26 11:04:54;;;;;;;17.35;10.63;;;;;;;-141.50;100.00;63355.56;4882672;29;20052;-84
2021/10/26 11:07:42;;;;;;;18.45;9.77;;;;;;;-141.50;100.00;63355.56;4883032;29;20052;-85
2021/10/26 11:10:12;;;;;;;19.35;11.10;;;;;;;-141.50;100.00;63355.56;4902218;29;20182;-83
2021/10/26 11:12:39;;;;;;;18.92;10.65;;;;;;;-141.50;100.00;63355.56;4885652;29;20735;-83
2021/10/26 11:15:08;;;;;;;18.05;10.70;;;;;;;-141.50;100.00;63355.56;4903756;29;20181;-85
2021/10/26 11:17:35;;;;;;;18.38;11.48;;;;;;;-141.50;100.00;63355.56;4902864;29;20051;-84
2021/10/26 11:20:07;;;;;;;19.75;11.27;;;;;;;-141.50;100.00;63355.56;4918899;29;20051;-82
2021/10/26 11:22:45;;;;;;;16.73;10.35;;;;;;;-141.50;100.00;63355.56;4925801;29;20051;-84
2021/10/26 11:25:27;;;;;;;18.52;10.55;;;;;;;-141.50;100.00;63355.56;4927558;29;20047;-83
2021/10/26 11:27:55;;;;;;;17.02;9.85;;;;;;;-141.50;100.00;63355.56;4925611;29;20163;-82
2021/10/26 11:30:29;;;;;;;16.45;9.93;;;;;;;-141.50;100.00;63355.56;4928367;29;20051;-81
2021/10/26 11:33:14;;;;;;;16.58;10.15;;;;;;;-141.50;100.00;63355.56;4925566;29;20385;-83
2021/10/26 11:35:55;;;;;;;15.20;9.27;;;;;;;-141.50;100.00;63355.56;4941409;29;20476;-83
2021/10/26 11:38:23;;;;;;;14.93;9.83;;;;;;;-141.50;100.00;63355.56;4941192;29;20039;-83
2021/10/26 11:41:05;;;;;;;15.82;10.00;;;;;;;-141.50;100.00;63355.56;4925163;29;20060;-82
2021/10/26 11:43:41;;;;;;;18.40;10.43;;;;;;;-141.50;100.00;63355.56;4889954;29;20103;-84
2021/10/26 11:46:14;;;;;;;18.35;10.85;;;;;;;-141.50;100.00;63355.56;4890401;29;20059;-84
2021/10/26 11:48:46;;;;;;;20.00;10.45;;;;;;;-141.50;100.00;63355.56;4890007;29;20084;-82
2021/10/26 11:51:34;;;;;;;20.90;10.80;;;;;;;-141.50;100.00;63355.56;4888552;29;20084;-82
2021/10/26 11:54:06;;;;;;;15.10;9.48;;;;;;;-141.50;100.00;63355.56;4887492;29;20421;-81
2021/10/26 11:56:43;;;;;;;18.42;10.35;;;;;;;-141.50;100.00;63355.56;4885293;29;20051;-83
2021/10/26 11:59:16;;;;;;;20.33;10.30;;;;;;;-141.50;100.00;63355.56;4887275;29;20139;-84
2021/10/26 12:01:49;;;;;;;21.77;11.02;;;;;;;-141.50;100.00;63355.56;4887184;29;20272;-84
2021/10/26 12:04:31;;;;;;;14.13;9.45;;;;;;;-141.50;100.00;63355.56;4888165;29;20388;-83
2021/10/26 12:07:20;;;;;;;20.60;10.43;;;;;;;-141.50;100.00;63355.56;4887591;29;20060;-84
2021/10/26 12:09:56;;;;;;;17.73;9.65;;;;;;;-141.50;100.00;63355.56;4889115;29;20056;-82
2021/10/26 12:12:31;;;;;;;18.90;10.60;;;;;;;-141.50;100.00;63355.56;4885526;29;20112;-84
2021/10/26 12:15:04;;;;;;;16.23;10.15;;;;;;;-141.50;100.00;63355.56;4904998;29;20044;-81
2021/10/26 12:17:32;;;;;;;15.65;9.05;;;;;;;-141.50;100.00;63355.56;4903560;29;20511;-84
2021/10/26 12:20:10;;;;;;;17.80;9.65;;;;;;;-141.50;100.00;63355.56;4905744;29;20059;-84
2021/10/26 12:22:54;;;;;;;16.17;9.52;;;;;;;-141.50;100.00;63355.56;4904751;29;20524;-82
2021/10/26 12:25:24;;;;;;;14.98;8.80;;;;;;;-141.50;100.00;63355.56;4901241;29;20051;-84
2021/10/26 12:27:52;;;;;;;16.73;10.25;;;;;;;-141.50;100.00;63355.56;4901990;29;20498;-84
2021/10/26 12:30:39;;;;;;;19.75;10.65;;;;;;;-141.50;100.00;63355.56;4902879;29;20059;-85
2021/10/26 12:33:06;;;;;;;26.92;10.60;;;;;;;-141.50;100.00;63355.56;4902420;29;20498;-82
2021/10/26 12:35:41;;;;;;;18.23;10.43;;;;;;;-141.50;100.00;63355.56;4902897;29;20059;-83
2021/10/26 12:38:21;;;;;;;21.77;10.27;;;;;;;-141.50;100.00;63355.56;4902059;29;20508;-82
2021/10/26 12:40:50;;;;;;;19.80;10.18;;;;;;;-141.50;100.00;63355.56;4901741;29;20052;-83
2021/10/26 12:43:22;;;;;;;22.15;10.93;;;;;;;-141.50;100.00;63355.56;4891648;29;20470;-84
2021/10/26 12:45:52;;;;;;;27.00;11.18;;;;;;;-141.50;100.00;63355.56;4918389;29;20591;-80
2021/10/26 12:48:21;;;;;;;22.45;11.10;;;;;;;-141.50;100.00;63355.56;4904558;29;20485;-82
2021/10/26 12:50:56;;;;;;;20.48;10.80;;;;;;;-141.50;100.00;63355.56;4904582;29;20150;-83
2021/10/26 12:53:34;;;;;;;18.98;10.68;;;;;;;-141.50;100.00;63355.56;4905557;29;20509;-81
2021/10/26 12:56:21;;;;;;;19.45;10.35;;;;;;;-141.50;100.00;63355.56;4905586;29;20127;-80
2021/10/26 12:59:14;;;;;;;21.00;10.50;;;;;;;-141.50;100.00;63355.56;4905052;29;20043;-82
2021/10/26 13:01:42;;;;;;;20.65;10.45;;;;;;;-141.50;100.00;63355.56;4905806;29;20055;-83
2021/10/26 13:04:15;;;;;;;17.63;10.18;;;;;;;-141.50;100.00;63355.56;4904942;29;20051;-82
2021/10/26 13:06:54;;;;;;;18.05;10.20;;;;;;;-141.50;100.00;63355.56;4906577;29;20039;-82
2021/10/26 13:09:37;;;;;;;21.33;10.40;;;;;;;-141.50;100.00;63355.56;4921261;29;20132;-84
2021/10/26 13:12:07;;;;;;;19.05;9.70;;;;;;;-141.50;100.00;63355.56;4904052;29;20122;-82
2021/10/26 13:14:36;;;;;;;16.23;8.23;;;;;;;-141.50;100.00;63355.56;4904442;29;20279;-83
2021/10/26 13:17:21;;;;;;;20.85;8.77;;;;;;;-141.50;100.00;63355.56;4903505;29;20568;-84
2021/10/26 13:19:48;;;;;;;19.45;8.10;;;;;;;-141.50;100.00;63355.56;4903545;29;20535;-82
2021/10/26 13:22:15;;;;;;;11.55;7.05;;;;;;;-141.50;100.00;63355.56;4902919;29;20531;-82
2021/10/26 13:24:43;;;;;;;18.13;7.80;;;;;;;-141.50;100.00;63355.56;4905424;29;20094;-82
2021/10/26 13:27:12;;;;;;;14.40;7.32;;;;;;;-141.50;100.00;63355.56;4900569;29;20056;-83
2021/10/26 13:29:45;;;;;;;10.68;6.38;;;;;;;-141.50;100.00;63355.56;4902103;29;20056;-82
2021/10/26 13:32:18;;;;;;;12.80;6.88;;;;;;;-141.50;100.00;63355.56;4901820;29;20051;-82
2021/10/26 13:34:54;;;;;;;13.50;6.28;;;;;;;-141.50;100.00;63355.56;4885583;29;20048;-83
2021/10/26 13:37:21;;;;;;;8.48;5.75;;;;;;;-141.50;100.00;63355.56;4903181;29;20091;-82
2021/10/26 13:39:49;;;;;;;10.25;5.90;;;;;;;-141.50;100.00;63355.56;4920554;29;20103;-82
2021/10/26 13:42:16;;;;;;;10.57;5.63;;;;;;;-141.50;100.00;63355.56;4903392;29;20051;-82
2021/10/26 13:44:43;;;;;;;12.68;5.70;;;;;;;-141.50;100.00;63355.56;4900470;29;20214;-82
2021/10/26 13:47:11;;;;;;;11.27;5.40;;;;;;;-141.50;100.00;63355.56;4892198;29;20074;-82
2021/10/26 13:49:38;;;;;;;10.32;5.50;;;;;;;-141.50;100.00;63355.56;4904419;29;20057;-83
2021/10/26 13:52:06;;;;;;;11.60;5.68;;;;;;;-141.50;100.00;63355.56;4903752;29;20520;-84
2021/10/26 13:54:33;;;;;;;11.40;5.43;;;;;;;-141.50;100.00;63355.56;4905556;29;20123;-82
2021/10/26 13:56:59;;;;;;;9.80;5.20;;;;;;;-141.50;100.00;63355.56;4905503;29;20058;-84
2021/10/26 13:59:26;;;;;;;13.07;5.10;;;;;;;-141.50;100.00;63355.56;4906738;29;20056;-81
2021/10/26 14:02:06;;;;;;;10.82;5.03;;;;;;;-141.50;100.00;63355.56;4899068;29;20051;-83
2021/10/26 14:04:34;;;;;;;8.73;4.63;;;;;;;-141.50;100.00;63355.56;4922037;29;20070;-83
2021/10/26 14:07:01;;;;;;;8.73;4.65;;;;;;;-141.50;100.00;63355.56;4910195;29;20051;-83
2021/10/26 14:09:28;;;;;;;10.95;4.60;;;;;;;-141.50;100.00;63355.56;4892711;29;20056;-81